Time;durP1;ratioP1;P1;durP2;ratioP2;P2;SDS_P1;SDS_P2;PMS_P1;PMS_P2;Temp;Humidity;BMP_temperature;BMP_pressure;BME280_temperature;BME280_humidity;BME280_pressure;Samples;Min_cycle;Max_cycle;Signal;HPM_P1;HPM_P2
2021/08/02 09:21:51;;;;;;;9.17;5.77;;;;;;;25.41;42.33;101491.16;4963302;28;20585;-57
2021/08/02 09:31:14;;;;;;;11.47;4.97;;;;;;;27.38;38.86;101481.75;5039923;28;20598;-52
2021/08/02 09:33:43;;;;;;;11.17;5.20;;;;;;;27.73;38.21;101485.38;5024334;28;20210;-51
2021/08/02 09:36:09;;;;;;;8.83;4.10;;;;;;;27.99;36.91;101487.28;5041004;28;20188;-52
2021/08/02 09:38:34;;;;;;;9.33;4.47;;;;;;;28.19;36.78;101488.53;5041277;28;20266;-52
2021/08/02 09:40:59;;;;;;;6.90;3.60;;;;;;;28.31;36.65;101483.22;5042340;28;20182;-52
2021/08/02 09:43:27;;;;;;;7.50;4.17;;;;;;;28.41;36.22;101496.59;5039962;28;20187;-52
2021/08/02 09:45:57;;;;;;;6.80;3.77;;;;;;;28.48;35.29;101490.63;5040514;28;20192;-52
2021/08/02 09:48:39;;;;;;;6.23;3.77;;;;;;;28.54;37.04;101489.28;5037988;27;20628;-53
2021/08/02 09:51:12;;;;;;;10.23;3.77;;;;;;;28.56;36.55;101498.00;5030547;28;20201;-51
2021/08/02 09:53:43;;;;;;;8.13;3.63;;;;;;;28.62;36.26;101493.97;5030902;28;20653;-51
2021/08/02 09:56:17;;;;;;;8.73;3.70;;;;;;;28.71;36.45;101491.97;5025428;28;20296;-51
2021/08/02 09:58:43;;;;;;;11.27;3.73;;;;;;;28.75;35.97;101492.94;5029061;28;20232;-53
2021/08/02 10:01:11;;;;;;;7.07;3.60;;;;;;;28.79;36.14;101490.34;5027755;28;20178;-53
2021/08/02 10:03:38;;;;;;;5.30;3.23;;;;;;;28.80;35.63;101495.50;5028470;28;20206;-53
2021/08/02 10:06:03;;;;;;;9.27;3.27;;;;;;;28.82;35.43;101497.91;5027698;28;20227;-53
2021/08/02 10:08:28;;;;;;;6.27;3.40;;;;;;;28.82;35.52;101490.47;5027926;28;20951;-53
2021/08/02 10:10:54;;;;;;;7.60;3.10;;;;;;;28.84;34.90;101487.38;5022613;28;20270;-53
2021/08/02 10:13:24;;;;;;;7.03;2.83;;;;;;;28.85;34.83;101484.31;5028186;28;20189;-52
2021/08/02 10:15:52;;;;;;;4.20;2.87;;;;;;;28.89;34.67;101479.00;5027938;28;20181;-53
2021/08/02 10:18:18;;;;;;;6.73;2.87;;;;;;;28.91;34.48;101484.97;5028223;28;20276;-53
2021/08/02 10:20:43;;;;;;;6.00;2.87;;;;;;;28.93;34.38;101479.94;5020722;28;20186;-53
2021/08/02 10:23:09;;;;;;;4.33;2.20;;;;;;;28.93;34.53;101485.44;5027269;28;20182;-53
2021/08/02 10:25:37;;;;;;;4.70;2.33;;;;;;;28.96;34.23;101477.31;5028641;28;20243;-53
2021/08/02 10:28:05;;;;;;;3.03;2.50;;;;;;;28.98;34.02;101485.25;5028782;28;20186;-53
2021/08/02 10:30:30;;;;;;;5.87;2.30;;;;;;;29.00;34.31;101488.50;5026805;28;20705;-53
2021/08/02 10:32:57;;;;;;;4.87;2.20;;;;;;;29.01;34.28;101484.59;5026500;28;20197;-54
2021/08/02 10:35:34;;;;;;;4.40;2.30;;;;;;;29.04;33.63;101485.88;5028298;28;20786;-53
2021/08/02 10:38:01;;;;;;;4.80;1.80;;;;;;;29.07;33.92;101482.44;5028721;28;20700;-53
2021/08/02 10:40:27;;;;;;;2.30;1.60;;;;;;;29.10;33.79;101485.38;5024994;28;20207;-52
2021/08/02 10:42:52;;;;;;;2.83;2.07;;;;;;;29.11;33.87;101491.66;5009061;28;20708;-53
2021/08/02 10:45:31;;;;;;;4.37;2.07;;;;;;;29.15;33.98;101493.41;5014176;28;20249;-53
2021/08/02 10:47:57;;;;;;;4.70;2.10;;;;;;;29.17;33.52;101490.31;5015902;28;20223;-53
2021/08/02 10:50:24;;;;;;;4.03;1.73;;;;;;;29.21;34.00;101491.25;5014885;28;20224;-52
2021/08/02 10:52:49;;;;;;;3.23;1.77;;;;;;;29.25;33.34;101492.22;5029325;28;20273;-53
2021/08/02 10:55:16;;;;;;;3.07;1.80;;;;;;;29.27;34.12;101493.50;5014720;28;20195;-52
2021/08/02 10:57:41;;;;;;;4.07;1.90;;;;;;;29.31;34.98;101499.13;5014934;28;20306;-50
2021/08/02 11:00:18;;;;;;;6.17;2.23;;;;;;;29.29;35.21;101493.16;5007519;28;20270;-51
2021/08/02 11:02:57;;;;;;;5.90;1.80;;;;;;;29.25;35.60;101492.22;5014688;28;20193;-50
2021/08/02 11:05:23;;;;;;;195.73;140.53;;;;;;;28.71;31.33;101491.97;5013167;28;20194;-51
2021/08/02 11:07:49;;;;;;;47.13;28.27;;;;;;;28.25;32.84;101488.06;5013551;28;20194;-51
2021/08/02 11:10:15;;;;;;;31.17;17.13;;;;;;;27.66;34.71;101492.47;5014520;28;20224;-49
2021/08/02 11:12:47;;;;;;;108.97;58.73;;;;;;;27.39;35.11;101490.78;5014014;28;20722;-51
2021/08/02 11:15:12;;;;;;;31.97;17.53;;;;;;;27.29;34.49;101491.88;5015747;28;20184;-51
2021/08/02 12:00:45;;;;;;;2.97;1.33;;;;;;;18.43;57.79;101546.38;4344477;27;1198368;-78
2021/08/02 12:03:11;;;;;;;2.50;0.90;;;;;;;18.95;56.79;101544.88;5001812;28;20821;-77
2021/08/02 12:05:39;;;;;;;1.20;1.03;;;;;;;19.66;57.22;101543.34;4980177;28;20717;-77
2021/08/02 12:08:12;;;;;;;2.93;0.80;;;;;;;20.67;55.41;101549.19;4992152;28;20188;-76
2021/08/02 12:10:38;;;;;;;3.03;1.10;;;;;;;19.53;54.04;101546.53;4981775;28;20663;-77
2021/08/02 12:13:12;;;;;;;3.27;0.90;;;;;;;19.68;53.45;101545.78;4978273;28;20188;-79
2021/08/02 12:15:49;;;;;;;2.03;1.10;;;;;;;19.62;52.17;101542.25;4979163;28;20540;-77
2021/08/02 12:18:21;;;;;;;2.67;0.80;;;;;;;20.20;53.61;101544.81;4988032;28;20188;-77
2021/08/02 12:20:47;;;;;;;2.97;0.87;;;;;;;20.60;50.82;101543.25;4984431;28;20216;-76
2021/08/02 12:23:24;;;;;;;2.77;0.90;;;;;;;20.95;50.43;101558.66;4999876;28;20221;-78
2021/08/02 12:25:50;;;;;;;2.17;1.00;;;;;;;20.67;52.20;101549.19;4986276;28;20195;-77
2021/08/02 12:28:15;;;;;;;2.27;0.93;;;;;;;20.74;50.59;101553.28;5000223;28;20203;-76
2021/08/02 12:30:42;;;;;;;1.53;0.80;;;;;;;20.49;53.50;101556.00;5001614;28;20527;-77
2021/08/02 12:33:10;;;;;;;3.93;1.23;;;;;;;20.76;49.26;101553.00;4985029;28;20287;-77
2021/08/02 12:35:36;;;;;;;2.37;0.90;;;;;;;20.41;51.61;101561.94;4983466;28;20286;-78
2021/08/02 12:38:03;;;;;;;2.50;1.00;;;;;;;20.86;51.25;101555.72;4993402;28;20194;-77
2021/08/02 12:40:28;;;;;;;2.03;1.03;;;;;;;21.68;48.74;101546.19;4985111;28;70284;-77
2021/08/02 12:43:26;;;;;;;5.37;1.43;;;;;;;22.40;46.17;101543.03;5006283;27;92562;-77
2021/08/02 12:46:56;;;;;;;3.33;1.10;;;;;;;21.33;45.90;101546.34;5093680;27;21354;-78
2021/08/02 12:49:21;;;;;;;2.30;0.90;;;;;;;20.69;50.73;101549.72;5085153;28;20242;-77
2021/08/02 12:51:46;;;;;;;2.50;0.90;;;;;;;20.61;48.88;101553.00;5080492;28;20212;-79
2021/08/02 12:54:12;;;;;;;1.33;0.87;;;;;;;20.57;46.90;101548.09;5068324;28;20280;-79
2021/08/02 12:56:37;;;;;;;2.03;0.90;;;;;;;20.25;45.22;101551.06;5062396;28;20211;-78
2021/08/02 12:59:02;;;;;;;2.97;0.77;;;;;;;20.47;46.31;101553.56;5081962;28;20196;-77
2021/08/02 13:01:27;;;;;;;2.53;0.90;;;;;;;20.53;47.23;101554.38;5068954;28;20189;-80
2021/08/02 13:06:08;;;;;;;3.03;1.30;;;;;;;21.20;45.32;101549.63;3595837;39;20622;-79
2021/08/02 13:09:33;;;;;;;2.67;0.83;;;;;;;22.24;47.83;101550.53;3609288;39;69297;-80
2021/08/02 13:11:59;;;;;;;2.37;0.90;;;;;;;21.30;46.14;101542.28;3581107;39;20989;-78
2021/08/02 13:14:24;;;;;;;2.03;0.87;;;;;;;20.57;48.52;101553.53;3580205;39;20300;-77
2021/08/02 13:16:49;;;;;;;2.27;1.33;;;;;;;19.89;52.05;101543.94;3591616;39;20613;-79
2021/08/02 13:19:15;;;;;;;3.10;1.00;;;;;;;20.75;54.42;101551.38;3590756;40;20221;-77
2021/08/02 13:21:40;;;;;;;1.50;0.67;;;;;;;20.73;51.48;101545.41;3592417;40;20241;-77
2021/08/02 13:26:56;;;;;;;1.90;0.67;;;;;;;21.31;49.56;101556.69;3582177;39;20294;-79
2021/08/02 13:29:23;;;;;;;3.63;0.83;;;;;;;20.91;52.81;101557.59;3585463;40;20239;-77
2021/08/02 13:31:50;;;;;;;2.10;0.80;;;;;;;20.29;50.04;101562.19;3590457;40;20254;-79
2021/08/02 13:34:15;;;;;;;0.77;0.63;;;;;;;21.00;50.91;101558.66;3592303;40;20240;-79
2021/08/02 13:36:40;;;;;;;1.83;0.70;;;;;;;21.24;48.44;101554.25;3590690;40;20224;-78
2021/08/02 13:39:06;;;;;;;1.53;1.00;;;;;;;21.12;48.75;101557.28;3594580;40;20237;-79
2021/08/02 13:41:32;;;;;;;2.07;0.93;;;;;;;20.93;46.99;101550.78;3583332;40;20298;-79
2021/08/02 13:43:57;;;;;;;2.53;1.00;;;;;;;21.33;47.94;101557.22;3591020;40;20240;-79
2021/08/02 13:46:23;;;;;;;2.33;1.17;;;;;;;21.55;47.23;101565.03;3590640;40;20240;-79
2021/08/02 13:48:48;;;;;;;3.33;1.33;;;;;;;21.60;45.19;101563.13;3594051;40;20264;-79
2021/08/02 13:51:14;;;;;;;1.47;1.07;;;;;;;20.29;49.03;101557.56;3595271;40;21289;-80
2021/08/02 13:53:39;;;;;;;2.87;0.90;;;;;;;20.96;46.65;101563.84;3593034;40;20241;-78
2021/08/02 13:56:04;;;;;;;2.17;0.60;;;;;;;20.15;48.78;101569.22;3586334;40;20237;-79
2021/08/02 13:58:29;;;;;;;3.00;1.00;;;;;;;20.50;50.00;101558.44;3601108;39;20934;-78
2021/08/02 14:00:55;;;;;;;2.13;0.70;;;;;;;19.58;51.84;101570.16;3592141;40;20248;-80
2021/08/02 14:03:20;;;;;;;2.83;0.83;;;;;;;19.47;55.44;101571.19;3601306;39;20224;-79
2021/08/02 14:05:45;;;;;;;2.37;0.87;;;;;;;20.15;51.55;101575.47;3589923;40;20347;-78
2021/08/02 14:08:11;;;;;;;0.90;0.63;;;;;;;20.56;51.87;101567.38;3586504;40;20275;-79
2021/08/02 14:10:36;;;;;;;2.00;0.80;;;;;;;21.54;49.96;101569.66;3590991;40;20225;-80
2021/08/02 14:13:03;;;;;;;1.13;0.70;;;;;;;21.66;50.80;101562.00;3581067;40;20377;-80
2021/08/02 14:15:36;;;;;;;3.47;1.00;;;;;;;21.97;49.26;101565.34;3591126;40;20218;-79
2021/08/02 14:18:06;;;;;;;2.10;0.93;;;;;;;21.76;48.70;101561.13;3592567;40;20291;-79
2021/08/02 14:20:33;;;;;;;1.77;1.20;;;;;;;21.31;46.01;101567.56;3588351;40;20226;-80
2021/08/02 14:22:59;;;;;;;3.30;0.90;;;;;;;19.64;52.84;101567.19;3586731;40;20215;-80
2021/08/02 14:25:24;;;;;;;2.60;0.80;;;;;;;18.88;54.47;101566.75;3586259;40;20229;-81
2021/08/02 14:27:50;;;;;;;2.03;0.93;;;;;;;19.02;54.91;101567.94;3584975;40;20245;-78
2021/08/02 14:30:15;;;;;;;2.40;0.80;;;;;;;19.21;53.16;101564.81;3584613;40;20619;-78
2021/08/02 14:32:42;;;;;;;1.23;0.80;;;;;;;20.10;50.96;101567.34;3574114;40;20244;-78
2021/08/02 14:35:09;;;;;;;3.37;0.90;;;;;;;21.08;49.07;101567.03;3573452;40;20593;-77
2021/08/02 14:37:39;;;;;;;2.80;1.50;;;;;;;21.10;49.41;101577.66;3582416;40;20218;-78
2021/08/02 14:40:06;;;;;;;2.70;0.90;;;;;;;20.92;49.70;101573.59;3575965;40;20226;-79
2021/08/02 14:42:33;;;;;;;1.30;0.87;;;;;;;20.89;51.02;101568.72;3584987;40;20563;-79
2021/08/02 14:45:01;;;;;;;3.17;1.33;;;;;;;21.48;48.09;101569.97;3582494;40;20291;-78
2021/08/02 14:47:30;;;;;;;1.33;0.60;;;;;;;21.70;48.67;101565.78;3581482;40;20213;-78
2021/08/02 14:50:02;;;;;;;1.27;0.80;;;;;;;22.66;45.74;101565.44;3571689;40;20271;-78
2021/08/02 14:52:27;;;;;;;2.93;0.97;;;;;;;22.82;44.45;101562.25;3576774;40;20498;-79
2021/08/02 14:54:53;;;;;;;1.00;0.60;;;;;;;22.37;47.13;101562.69;3582037;40;20234;-78
2021/08/02 14:57:19;;;;;;;2.10;0.90;;;;;;;21.68;47.36;101559.81;3584983;40;20281;-79
2021/08/02 14:59:45;;;;;;;1.27;0.80;;;;;;;20.77;47.71;101571.72;3575778;40;20235;-80
2021/08/02 15:02:13;;;;;;;1.65;0.85;;;;;;;20.96;50.19;101571.16;3577973;40;20406;-74
2021/08/02 15:04:41;;;;;;;0.93;0.80;;;;;;;20.83;49.56;101570.66;3580848;40;20850;-74
2021/08/02 15:07:06;;;;;;;1.50;0.80;;;;;;;21.94;47.62;101560.47;3581172;40;20218;-74
2021/08/02 15:09:34;;;;;;;1.60;0.80;;;;;;;22.45;46.00;101557.41;3564103;40;20235;-74
2021/08/02 15:12:00;;;;;;;1.57;0.67;;;;;;;22.80;44.67;101556.28;3563863;40;20587;-74
2021/08/02 15:14:25;;;;;;;1.53;0.80;;;;;;;23.64;40.58;101545.03;3555682;40;20242;-75
2021/08/02 15:16:56;;;;;;;4.10;1.20;;;;;;;23.41;41.84;101555.66;3556972;40;20284;-75
2021/08/02 15:19:30;;;;;;;1.53;0.77;;;;;;;23.15;40.85;101544.25;3559571;40;20290;-75
2021/08/02 15:21:58;;;;;;;0.77;0.70;;;;;;;23.34;41.93;101549.72;3563545;40;20261;-75
2021/08/02 15:24:27;;;;;;;0.97;0.40;;;;;;;22.43;42.36;101546.00;3571343;40;20228;-74
2021/08/02 15:27:04;;;;;;;1.40;0.63;;;;;;;22.52;40.35;101549.75;3551606;40;20238;-73
2021/08/02 15:29:30;;;;;;;1.23;0.70;;;;;;;22.56;40.75;101545.34;3560004;40;20266;-73
2021/08/02 15:31:57;;;;;;;2.83;0.73;;;;;;;21.94;41.33;101556.94;3560470;40;20230;-74
2021/08/02 15:34:22;;;;;;;2.20;0.80;;;;;;;21.97;43.24;101554.47;3554917;40;20286;-74
2021/08/02 15:36:50;;;;;;;1.97;0.63;;;;;;;22.31;42.66;101542.84;3563304;40;20226;-74
2021/08/02 15:39:16;;;;;;;1.33;0.60;;;;;;;21.76;43.13;101552.16;3564802;40;20245;-74
2021/08/02 15:41:50;;;;;;;2.47;0.73;;;;;;;21.77;42.69;101551.06;3560570;40;20265;-75
2021/08/02 15:44:24;;;;;;;3.80;0.77;;;;;;;22.10;43.83;101549.50;3563750;40;20592;-74
2021/08/02 15:46:49;;;;;;;1.93;0.93;;;;;;;22.20;44.82;101554.88;3564357;40;20241;-73
2021/08/02 15:49:14;;;;;;;2.00;0.60;;;;;;;22.22;45.23;101553.50;3564820;40;20231;-74
2021/08/02 15:51:49;;;;;;;1.50;0.73;;;;;;;22.39;46.32;101550.41;3563964;40;20492;-73
2021/08/02 15:54:15;;;;;;;1.00;0.50;;;;;;;22.19;44.08;101547.81;3560212;40;20246;-74
2021/08/02 15:56:43;;;;;;;2.23;0.60;;;;;;;22.76;43.83;101541.63;3562091;40;20238;-73
2021/08/02 15:59:22;;;;;;;2.43;0.90;;;;;;;22.57;46.01;101546.97;3564634;40;20212;-73
2021/08/02 16:01:49;;;;;;;2.03;0.90;;;;;;;22.32;47.51;101542.53;3563914;40;20317;-74
2021/08/02 16:04:14;;;;;;;4.07;1.20;;;;;;;22.47;45.93;101552.50;3561424;40;20669;-74
2021/08/02 16:06:45;;;;;;;4.13;0.97;;;;;;;22.28;46.79;101538.78;3563981;40;20341;-73
2021/08/02 16:09:11;;;;;;;3.93;0.83;;;;;;;22.49;46.33;101547.59;3577659;40;20373;-73
2021/08/02 16:11:44;;;;;;;2.10;0.83;;;;;;;22.02;46.98;101550.91;3583260;40;20237;-74
2021/08/02 16:14:10;;;;;;;1.77;0.70;;;;;;;21.84;47.88;101549.63;3579755;40;20301;-74
2021/08/02 16:16:35;;;;;;;1.93;0.90;;;;;;;21.39;48.33;101550.69;3579708;40;20229;-73
2021/08/02 16:19:02;;;;;;;5.47;1.27;;;;;;;22.33;46.27;101543.34;3579431;40;20225;-73
2021/08/02 16:21:28;;;;;;;3.70;1.00;;;;;;;22.25;46.38;101557.59;3583000;40;20605;-73
2021/08/02 16:23:53;;;;;;;2.90;0.90;;;;;;;20.78;50.35;101551.63;3570844;40;20230;-74
2021/08/02 16:26:19;;;;;;;2.27;0.80;;;;;;;20.93;50.26;101553.50;3582735;40;20286;-73
2021/08/02 16:28:44;;;;;;;2.07;0.93;;;;;;;21.97;48.07;101553.66;3581880;40;20237;-73
2021/08/02 16:31:09;;;;;;;4.17;0.90;;;;;;;21.63;48.13;101550.88;3579017;40;20228;-73
2021/08/02 16:33:37;;;;;;;3.27;1.20;;;;;;;20.05;52.52;101563.78;3579015;40;20656;-73
2021/08/02 16:36:03;;;;;;;2.97;1.00;;;;;;;19.45;54.64;101560.59;3582726;40;20655;-74
2021/08/02 16:38:29;;;;;;;2.57;1.00;;;;;;;20.80;51.58;101552.16;3580378;40;20230;-75
2021/08/02 16:40:54;;;;;;;2.40;0.83;;;;;;;21.00;50.99;101559.47;3579235;40;20627;-74
2021/08/02 16:43:19;;;;;;;7.03;0.97;;;;;;;21.05;51.93;101550.50;3570658;40;20513;-74
2021/08/02 16:45:45;;;;;;;3.53;0.87;;;;;;;21.64;49.64;101549.78;3579647;40;20861;-74
2021/08/02 16:48:10;;;;;;;2.20;1.03;;;;;;;22.51;47.52;101534.50;3569675;40;20265;-74
2021/08/02 16:50:38;;;;;;;1.40;0.90;;;;;;;22.01;47.58;101539.22;3573369;40;20218;-75
2021/08/02 16:53:03;;;;;;;2.83;1.03;;;;;;;21.75;48.53;101537.75;3580250;40;20342;-75
2021/08/02 16:55:29;;;;;;;3.80;0.90;;;;;;;22.16;47.05;101532.06;3579820;40;20214;-74
2021/08/02 16:57:54;;;;;;;4.57;1.30;;;;;;;21.44;48.11;101535.16;3578453;40;20233;-74
2021/08/02 17:00:19;;;;;;;1.17;0.90;;;;;;;20.90;49.60;101537.75;3579906;40;20224;-74
2021/08/02 17:02:45;;;;;;;2.70;0.83;;;;;;;19.93;52.37;101545.84;3570360;40;20222;-74
2021/08/02 17:05:10;;;;;;;3.53;0.90;;;;;;;20.54;50.30;101540.50;3581830;40;20245;-74
2021/08/02 17:07:35;;;;;;;3.30;0.90;;;;;;;20.64;50.75;101545.13;3571606;40;20249;-74
2021/08/02 17:10:01;;;;;;;1.70;0.70;;;;;;;20.71;50.88;101545.69;3582282;40;20245;-74
2021/08/02 17:12:26;;;;;;;2.87;0.90;;;;;;;20.88;49.25;101539.13;3579456;40;20489;-74
2021/08/02 17:14:51;;;;;;;3.77;0.80;;;;;;;21.23;49.13;101538.22;3570541;40;20234;-74
2021/08/02 17:17:16;;;;;;;2.80;1.00;;;;;;;20.43;49.34;101536.16;3580648;40;20228;-74
2021/08/02 17:19:42;;;;;;;2.70;0.90;;;;;;;20.73;49.54;101539.97;3579352;40;20261;-74
2021/08/02 17:22:07;;;;;;;2.33;1.10;;;;;;;20.47;50.12;101537.28;3570154;40;20221;-74
2021/08/02 17:24:32;;;;;;;1.50;0.70;;;;;;;20.55;50.17;101539.41;3571192;40;20638;-75
2021/08/02 17:26:58;;;;;;;2.10;0.87;;;;;;;20.75;50.81;101535.06;3579267;40;20219;-74
2021/08/02 17:29:25;;;;;;;2.90;0.90;;;;;;;20.76;50.08;101540.22;3580969;40;20315;-74
2021/08/02 17:31:50;;;;;;;3.43;1.00;;;;;;;21.38;48.27;101538.19;3581219;40;20218;-74
2021/08/02 17:34:16;;;;;;;1.07;0.90;;;;;;;21.30;48.65;101541.47;3579243;40;20234;-74
2021/08/02 17:36:42;;;;;;;4.40;1.00;;;;;;;21.22;48.23;101542.84;3577953;40;20237;-75
2021/08/02 17:39:07;;;;;;;1.67;0.90;;;;;;;21.83;46.43;101539.03;3580436;40;20272;-74
2021/08/02 17:41:33;;;;;;;2.17;1.00;;;;;;;20.50;49.33;101536.72;3580069;40;20231;-75
2021/08/02 17:43:58;;;;;;;2.73;0.70;;;;;;;20.66;47.45;101536.72;3574367;40;20683;-74
2021/08/02 17:46:23;;;;;;;3.10;0.77;;;;;;;19.78;51.97;101543.09;3578496;40;20222;-74
2021/08/02 17:48:51;;;;;;;2.27;1.07;;;;;;;19.47;52.56;101536.75;3578538;40;20264;-74
2021/08/02 17:51:16;;;;;;;2.47;0.87;;;;;;;19.59;53.08;101547.41;3578887;40;20232;-75
2021/08/02 17:53:41;;;;;;;3.10;1.07;;;;;;;20.12;52.02;101542.66;3579091;40;20252;-74
2021/08/02 17:56:07;;;;;;;3.07;1.17;;;;;;;19.73;51.95;101548.53;3580029;40;21116;-74
2021/08/02 17:58:32;;;;;;;2.53;0.90;;;;;;;19.27;52.56;101548.31;3581506;40;20312;-75
2021/08/02 18:00:59;;;;;;;1.93;0.70;;;;;;;19.70;51.64;101540.94;3572051;40;20265;-74
2021/08/02 18:03:24;;;;;;;1.73;0.87;;;;;;;19.93;50.63;101551.28;3580049;40;20237;-74
2021/08/02 18:05:50;;;;;;;2.27;0.80;;;;;;;20.23;50.35;101547.00;3581208;40;20674;-75
2021/08/02 18:08:17;;;;;;;2.77;0.93;;;;;;;19.80;52.07;101540.13;3579876;40;20272;-74
2021/08/02 18:10:43;;;;;;;3.37;0.70;;;;;;;19.20;54.28;101549.63;3575521;40;20229;-75
2021/08/02 18:13:09;;;;;;;1.97;1.00;;;;;;;19.38;52.88;101539.16;3575725;40;20221;-75
2021/08/02 18:15:34;;;;;;;1.80;0.63;;;;;;;18.84;55.10;101545.91;3580612;40;20255;-74
2021/08/02 18:17:59;;;;;;;2.97;0.90;;;;;;;18.71;55.51;101555.28;3582497;40;20236;-75
2021/08/02 18:20:25;;;;;;;1.77;0.90;;;;;;;18.52;55.50;101555.63;3580243;40;20775;-74
2021/08/02 18:22:50;;;;;;;3.30;0.90;;;;;;;18.25;57.06;101562.97;3579868;40;20496;-74
2021/08/02 18:25:15;;;;;;;3.93;0.90;;;;;;;18.24;56.48;101566.75;3571705;40;21186;-74
2021/08/02 18:27:41;;;;;;;5.10;1.20;;;;;;;18.13;55.31;101565.03;3581171;40;20297;-74
2021/08/02 18:30:06;;;;;;;1.97;1.00;;;;;;;18.07;57.09;101568.75;3580468;40;20225;-74
2021/08/02 18:32:32;;;;;;;3.83;1.17;;;;;;;18.03;56.73;101570.31;3583332;40;20227;-74
2021/08/02 18:34:57;;;;;;;1.63;1.00;;;;;;;18.03;57.32;101573.84;3571383;40;20239;-74
2021/08/02 18:37:22;;;;;;;1.33;0.70;;;;;;;17.73;58.08;101574.31;3580191;40;20223;-74
2021/08/02 18:39:47;;;;;;;2.63;0.67;;;;;;;18.06;56.49;101573.34;3580358;40;20231;-74
2021/08/02 18:42:13;;;;;;;2.40;1.07;;;;;;;17.88;57.13;101571.78;3581475;40;20592;-74
2021/08/02 18:44:38;;;;;;;3.87;0.90;;;;;;;17.95;57.60;101571.59;3571516;40;20264;-74
2021/08/02 18:47:04;;;;;;;1.70;0.53;;;;;;;17.94;57.15;101578.09;3579818;40;20683;-74
2021/08/02 18:49:29;;;;;;;4.20;1.00;;;;;;;17.91;57.84;101574.00;3574045;40;20271;-74
2021/08/02 18:51:55;;;;;;;4.17;0.97;;;;;;;17.94;58.16;101576.19;3581059;40;20403;-74
2021/08/02 18:54:21;;;;;;;3.47;1.20;;;;;;;18.12;58.17;101566.09;3571185;40;20542;-74
2021/08/02 18:56:47;;;;;;;1.97;0.90;;;;;;;17.80;58.54;101574.97;3578750;40;20266;-74
2021/08/02 18:59:12;;;;;;;4.90;0.90;;;;;;;17.68;59.19;101573.44;3578779;40;20250;-74
2021/08/02 19:01:38;;;;;;;4.97;1.10;;;;;;;17.82;59.94;101577.41;3579736;40;20235;-74
2021/08/02 19:04:03;;;;;;;1.57;0.90;;;;;;;17.55;59.07;101575.44;3579929;40;20247;-72
2021/08/02 19:06:29;;;;;;;1.63;0.80;;;;;;;17.46;59.41;101582.34;3579629;40;20238;-74
2021/08/02 19:08:54;;;;;;;1.67;0.80;;;;;;;17.64;59.96;101584.72;3579988;40;20250;-74
2021/08/02 19:11:32;;;;;;;1.60;1.10;;;;;;;17.53;60.51;101579.44;3580158;40;20252;-74
2021/08/02 19:14:01;;;;;;;1.77;0.87;;;;;;;17.52;59.97;101577.81;3575027;40;20852;-74
2021/08/02 19:16:27;;;;;;;3.23;0.70;;;;;;;17.57;59.61;101584.09;3581777;40;20247;-72
2021/08/02 19:19:03;;;;;;;6.57;1.43;;;;;;;17.80;59.27;101574.16;3580043;40;20226;-72
2021/08/02 19:21:32;;;;;;;2.93;0.87;;;;;;;17.71;59.78;101581.88;3575008;40;20232;-72
2021/08/02 19:23:57;;;;;;;2.23;1.03;;;;;;;17.64;59.64;101576.63;3579730;40;20229;-74
2021/08/02 19:26:25;;;;;;;1.77;0.80;;;;;;;17.63;59.64;101590.38;3579218;40;20264;-74
2021/08/02 19:28:52;;;;;;;2.73;0.80;;;;;;;17.70;58.53;101582.13;3574054;40;20667;-74
2021/08/02 19:31:19;;;;;;;1.60;0.77;;;;;;;17.73;59.13;101578.91;3580137;39;20279;-72
2021/08/02 19:33:46;;;;;;;2.10;1.00;;;;;;;17.64;60.20;101584.72;3583163;39;20259;-74
2021/08/02 19:38:44;;;;;;;3.47;1.10;;;;;;;17.71;59.48;101589.16;3593466;39;20603;-73
2021/08/02 19:41:12;;;;;;;2.97;1.10;;;;;;;17.40;60.92;101591.44;3577249;39;20257;-73
2021/08/02 19:43:42;;;;;;;2.03;1.00;;;;;;;17.56;58.74;101590.59;3559581;40;96500;-73
2021/08/02 19:46:10;;;;;;;1.40;1.00;;;;;;;17.74;59.00;101600.28;3574422;39;20275;-73
2021/08/02 19:48:41;;;;;;;2.47;0.90;;;;;;;17.86;58.60;101600.16;3579361;40;20245;-73
2021/08/02 19:51:12;;;;;;;1.33;0.83;;;;;;;17.67;60.04;101607.75;3586670;40;20255;-73
2021/08/02 19:53:39;;;;;;;2.90;1.10;;;;;;;17.89;59.45;101602.34;3581221;39;68204;-73
2021/08/02 19:58:22;;;;;;;2.07;0.97;;;;;;;17.79;58.22;101604.94;4993131;28;20592;-72
2021/08/02 20:00:51;;;;;;;6.43;1.83;;;;;;;17.70;60.12;101604.56;4989980;28;20245;-72
2021/08/02 20:03:18;;;;;;;2.57;1.30;;;;;;;17.48;59.57;101606.41;4988894;28;20240;-72
2021/08/02 20:05:46;;;;;;;2.30;0.90;;;;;;;17.44;60.97;101611.50;4986287;28;20250;-72
2021/08/02 20:08:12;;;;;;;2.70;0.97;;;;;;;17.33;62.07;101609.72;4988073;28;20321;-72
2021/08/02 20:10:39;;;;;;;3.13;1.10;;;;;;;17.53;60.55;101610.00;4987627;28;20238;-72
2021/08/02 20:13:06;;;;;;;2.93;1.00;;;;;;;17.38;60.52;101614.38;4986703;28;20314;-72
2021/08/02 20:15:35;;;;;;;1.60;1.10;;;;;;;17.34;60.19;101608.66;4987021;28;20922;-72
2021/08/02 20:18:01;;;;;;;2.60;1.10;;;;;;;17.45;60.14;101610.44;4986128;28;20249;-72
2021/08/02 20:20:28;;;;;;;3.73;0.90;;;;;;;17.60;60.13;101612.50;4987258;28;20256;-72
2021/08/02 20:22:55;;;;;;;1.43;0.90;;;;;;;17.56;60.48;101609.50;4989070;28;20604;-72
2021/08/02 20:25:24;;;;;;;2.67;1.00;;;;;;;17.18;62.92;101606.81;4987675;28;20561;-72
2021/08/02 20:27:58;;;;;;;1.23;0.90;;;;;;;16.98;63.48;101616.22;4989096;28;20236;-72
2021/08/02 20:30:26;;;;;;;1.60;0.97;;;;;;;16.99;63.27;101612.44;4984145;28;20242;-72
2021/08/02 20:32:54;;;;;;;2.47;1.60;;;;;;;16.99;63.31;101612.44;4987312;28;20290;-72
2021/08/02 20:35:21;;;;;;;1.63;1.23;;;;;;;17.05;63.14;101616.06;4979105;28;20244;-72
2021/08/02 20:37:49;;;;;;;2.20;1.00;;;;;;;16.88;63.19;101610.66;5006828;28;20375;-72
2021/08/02 20:40:16;;;;;;;2.57;1.00;;;;;;;17.06;63.63;101610.41;5006899;28;20322;-72
2021/08/02 20:42:45;;;;;;;2.13;0.90;;;;;;;17.16;63.07;101614.34;5006952;28;20216;-72
2021/08/02 20:45:12;;;;;;;2.20;1.10;;;;;;;17.17;62.72;101616.78;5007296;28;20216;-73
2021/08/02 20:47:39;;;;;;;2.97;1.27;;;;;;;17.10;62.81;101620.72;5007612;28;20327;-73
2021/08/02 20:50:09;;;;;;;3.37;1.30;;;;;;;17.11;63.72;101622.34;5007331;28;20294;-73
2021/08/02 20:52:35;;;;;;;2.77;0.83;;;;;;;16.98;63.44;101621.63;4996749;28;20284;-73
2021/08/02 20:55:02;;;;;;;3.53;1.10;;;;;;;16.93;64.06;101623.44;4985117;28;20217;-73
2021/08/02 20:57:31;;;;;;;4.57;1.60;;;;;;;16.62;65.61;101627.47;4983949;28;21254;-73
2021/08/02 20:59:59;;;;;;;2.47;1.30;;;;;;;16.82;64.88;101630.53;4981720;28;20221;-73
2021/08/02 21:02:33;;;;;;;3.87;1.33;;;;;;;16.57;65.32;101636.28;4982338;28;20239;-73
2021/08/02 21:05:03;;;;;;;2.33;1.23;;;;;;;16.72;64.82;101633.06;4985363;28;20264;-73
2021/08/02 21:07:37;;;;;;;1.90;1.40;;;;;;;16.87;63.78;101625.22;4982374;28;20209;-73
2021/08/02 21:10:05;;;;;;;2.93;1.53;;;;;;;16.93;63.53;101628.84;4970823;28;20827;-73
2021/08/02 21:12:38;;;;;;;5.37;1.70;;;;;;;16.88;64.15;101636.84;4969785;28;20557;-73
2021/08/02 21:15:05;;;;;;;2.77;1.73;;;;;;;16.46;65.22;101632.59;4971875;28;20868;-73
2021/08/02 21:17:34;;;;;;;3.90;1.13;;;;;;;16.11;66.61;101638.13;4971425;28;20288;-73
2021/08/02 21:20:03;;;;;;;3.37;1.10;;;;;;;15.82;68.00;101639.16;4972603;28;20225;-73
2021/08/02 21:22:34;;;;;;;1.67;1.30;;;;;;;16.30;66.23;101643.34;4971038;28;20257;-73
2021/08/02 21:25:01;;;;;;;1.90;1.40;;;;;;;16.56;65.09;101637.34;4972386;28;20660;-73
2021/08/02 21:27:33;;;;;;;1.90;1.20;;;;;;;16.39;65.65;101636.53;4968134;28;20899;-73
2021/08/02 21:30:00;;;;;;;2.70;1.40;;;;;;;16.50;65.19;101641.00;4972167;28;20683;-73
2021/08/02 21:32:27;;;;;;;3.10;1.73;;;;;;;16.48;65.54;101632.34;4969754;28;20272;-73
2021/08/02 21:34:53;;;;;;;3.17;1.60;;;;;;;16.66;64.70;101631.31;4970215;28;20296;-71
2021/08/02 21:37:20;;;;;;;3.77;1.50;;;;;;;16.48;65.16;101638.56;4972539;28;20233;-71
2021/08/02 21:39:47;;;;;;;3.27;1.60;;;;;;;16.52;64.03;101627.31;4971616;28;20217;-72
2021/08/02 21:42:14;;;;;;;4.87;2.37;;;;;;;16.46;63.79;101631.78;4968528;28;20361;-72
2021/08/02 21:44:40;;;;;;;19.60;12.03;;;;;;;16.41;64.33;101632.53;4969917;28;20217;-72
2021/08/02 21:47:07;;;;;;;28.27;19.67;;;;;;;16.39;64.76;101628.44;4969466;28;20249;-72